Black Eagle — WDJJ — position and weather

sailwx.info

Track history (hours):
 
Tides and Currents Weather Stations Pressure Air Temp Water Temp Dewpoint Dewpoint Depression Visibility Wind Speed Wind Dir Waves Ship Positions

Black Eagle

Owner: Sealift Inc., Oyster Bay, NY. More information available from US FCC via Universal Licensing System and Coast Guard Vessel Documentation Center.

Last reported at 2016-Apr-14 14:25 UTC. Time now 2016-May-01 04:18 UTC.
Position N 09°00' W 015°54'.
Warning: this ship's position is 16 days out of date.

Length 190 m; draft 10.5 m.

Type: Cargo ship. MMSI: 369542000.

Date/timePositionNaut miles runAvg speedWind from/ knotsBaromVisibWave heightAir tempDewpointWater temp
2016-Apr-14 14:25N 09°00' W 015°54'1315.1
2016-Apr-14 13:34N 09°11' W 016°02'19214.6
2016-Apr-14 00:27N 11°58' W 017°37'1415.3
2016-Apr-13 23:33N 12°12' W 017°35'3215.2
2016-Apr-13 21:26N 12°44' W 017°32'1415.5
2016-Apr-13 20:31N 12°58' W 017°32'1515.5
2016-Apr-13 19:33N 13°13' W 017°32'1916.6
2016-Apr-13 18:23N 13°33' W 017°31'1416.4
2016-Apr-13 17:30N 13°47' W 017°30'1516.0
2016-Apr-13 16:33N 14°02' W 017°29'1615.9
2016-Apr-13 15:33N 14°18' W 017°28'1515.3
2016-Apr-13 14:33N 14°33' W 017°24'7 6.3
2016-Apr-13 13:28N 14°39' W 017°21'0 0.0
2016-Apr-13 12:31N 14°39' W 017°21'0 0.0
2016-Apr-13 11:28N 14°39' W 017°21'0 0.0
2016-Apr-13 10:16N 14°39' W 017°21'0 0.0
2016-Apr-13 09:34N 14°39' W 017°21'1 1.1
2016-Apr-13 08:33N 14°39' W 017°22'8 7.7
2016-Apr-13 07:33N 14°37' W 017°30'1312.9
2016-Apr-13 06:33N 14°47' W 017°38'1615.5
2016-Apr-13 05:29N 15°03' W 017°40'1515.5
2016-Apr-13 04:33N 15°18' W 017°42'1615.7
2016-Apr-13 03:33N 15°33' W 017°44'1615.6
2016-Apr-13 02:33N 15°49' W 017°47'1614.8
2016-Apr-13 01:27N 16°05' W 017°49'1315.0
2016-Apr-13 00:34N 16°18' W 017°50'1615.4
2016-Apr-12 23:32N 16°34' W 017°52'67014.8
2016-Apr-11 02:22N 27°28' W 015°15'1113.4
2016-Apr-11 01:33N 27°38' W 015°11'1312.6
2016-Apr-11 00:33N 27°50' W 015°14'1111.5
2016-Apr-10 23:33N 28°01' W 015°18'9 9.3
2016-Apr-10 22:33N 28°08' W 015°25'1 1.1
2016-Apr-10 21:33N 28°09' W 015°25'0 0.0
2016-Apr-10 20:19N 28°09' W 015°25'0 0.0
2016-Apr-10 19:22N 28°09' W 015°25'0 0.0
2016-Apr-10 18:25N 28°09' W 015°25'0 0.0
2016-Apr-10 17:25N 28°09' W 015°25'0 0.0
2016-Apr-10 16:25N 28°09' W 015°25'0 0.0
2016-Apr-10 15:28N 28°09' W 015°25'0 0.0
2016-Apr-10 14:28N 28°09' W 015°25'0 0.0
2016-Apr-10 13:28N 28°09' W 015°25'0 0.0
2016-Apr-10 12:28N 28°09' W 015°25'0 0.0
2016-Apr-10 11:31N 28°09' W 015°25'0 0.0
2016-Apr-10 10:31N 28°09' W 015°25'0 0.0
2016-Apr-10 09:31N 28°09' W 015°25'0 0.0
2016-Apr-10 08:31N 28°09' W 015°25'0 0.0
2016-Apr-10 07:31N 28°09' W 015°25'0 0.0
2016-Apr-10 06:31N 28°09' W 015°25'0 0.0
2016-Apr-10 05:31N 28°09' W 015°25'0 0.0
2016-Apr-10 04:31N 28°09' W 015°25'0 0.0
2016-Apr-10 03:22N 28°09' W 015°25'0 0.0
2016-Apr-10 02:33N 28°09' W 015°25'0 0.0
2016-Apr-10 01:33N 28°09' W 015°25'0 0.0
2016-Apr-10 00:33N 28°09' W 015°25'0 0.0
2016-Apr-09 23:33N 28°09' W 015°25'0 0.0
2016-Apr-09 22:33N 28°09' W 015°25'0 0.0
2016-Apr-09 21:33N 28°09' W 015°25'0 0.0
2016-Apr-09 20:24N 28°09' W 015°25'0 0.0
2016-Apr-09 19:24N 28°09' W 015°25'0 0.0
2016-Apr-09 18:27N 28°09' W 015°25'0 0.0
2016-Apr-09 17:27N 28°09' W 015°25'0 0.0
2016-Apr-09 16:27N 28°09' W 015°25'0 0.0
2016-Apr-09 15:30N 28°09' W 015°25'0 0.0
2016-Apr-09 14:30N 28°09' W 015°25'0 0.0
2016-Apr-09 13:33N 28°09' W 015°25'0 0.0
2016-Apr-09 12:30N 28°09' W 015°25'0 0.0
2016-Apr-09 11:33N 28°09' W 015°25'0 0.0
2016-Apr-09 10:33N 28°09' W 015°25'0 0.0
2016-Apr-09 09:33N 28°09' W 015°25'2 2.4
2016-Apr-09 08:33N 28°07' W 015°23'4 3.5
2016-Apr-09 07:34N 28°08' W 015°20'9 8.9
2016-Apr-09 06:33N 28°17' W 015°19'1110.8
2016-Apr-09 05:33N 28°27' W 015°19'10 9.5
2016-Apr-09 04:33N 28°34' W 015°27'1211.6
2016-Apr-09 03:33N 28°37' W 015°40'1212.0
2016-Apr-09 02:33N 28°43' W 015°51'  
Track history (hours):
 
Tides and Currents Weather Stations Pressure Air Temp Water Temp Dewpoint Dewpoint Depression Visibility Wind Speed Wind Dir Waves Ship Positions

Black Eagle

Owner: Sealift Inc., Oyster Bay, NY. More information available from US FCC via Universal Licensing System and Coast Guard Vessel Documentation Center.

Last reported at 2016-Apr-14 14:25 UTC. Time now 2016-May-01 04:18 UTC.
Position N 09°00' W 015°54'.
Warning: this ship's position is 16 days out of date.

Length 190 m; draft 10.5 m.

Type: Cargo ship. MMSI: 369542000.

Date/timePositionNaut miles runAvg speedWind from/ knotsBaromVisibWave heightAir tempDewpointWater temp
2016-Apr-14 14:25N 09°00' W 015°54'1315.1
2016-Apr-14 13:34N 09°11' W 016°02'19214.6
2016-Apr-14 00:27N 11°58' W 017°37'1415.3
2016-Apr-13 23:33N 12°12' W 017°35'3215.2
2016-Apr-13 21:26N 12°44' W 017°32'1415.5
2016-Apr-13 20:31N 12°58' W 017°32'1515.5
2016-Apr-13 19:33N 13°13' W 017°32'1916.6
2016-Apr-13 18:23N 13°33' W 017°31'1416.4
2016-Apr-13 17:30N 13°47' W 017°30'1516.0
2016-Apr-13 16:33N 14°02' W 017°29'1615.9
2016-Apr-13 15:33N 14°18' W 017°28'1515.3
2016-Apr-13 14:33N 14°33' W 017°24'7 6.3
2016-Apr-13 13:28N 14°39' W 017°21'0 0.0
2016-Apr-13 12:31N 14°39' W 017°21'0 0.0
2016-Apr-13 11:28N 14°39' W 017°21'0 0.0
2016-Apr-13 10:16N 14°39' W 017°21'0 0.0
2016-Apr-13 09:34N 14°39' W 017°21'1 1.1
2016-Apr-13 08:33N 14°39' W 017°22'8 7.7
2016-Apr-13 07:33N 14°37' W 017°30'1312.9
2016-Apr-13 06:33N 14°47' W 017°38'1615.5
2016-Apr-13 05:29N 15°03' W 017°40'1515.5
2016-Apr-13 04:33N 15°18' W 017°42'1615.7
2016-Apr-13 03:33N 15°33' W 017°44'1615.6
2016-Apr-13 02:33N 15°49' W 017°47'1614.8
2016-Apr-13 01:27N 16°05' W 017°49'1315.0
2016-Apr-13 00:34N 16°18' W 017°50'1615.4
2016-Apr-12 23:32N 16°34' W 017°52'67014.8
2016-Apr-11 02:22N 27°28' W 015°15'1113.4
2016-Apr-11 01:33N 27°38' W 015°11'1312.6
2016-Apr-11 00:33N 27°50' W 015°14'1111.5
2016-Apr-10 23:33N 28°01' W 015°18'9 9.3
2016-Apr-10 22:33N 28°08' W 015°25'1 1.1
2016-Apr-10 21:33N 28°09' W 015°25'0 0.0
2016-Apr-10 20:19N 28°09' W 015°25'0 0.0
2016-Apr-10 19:22N 28°09' W 015°25'0 0.0
2016-Apr-10 18:25N 28°09' W 015°25'0 0.0
2016-Apr-10 17:25N 28°09' W 015°25'0 0.0
2016-Apr-10 16:25N 28°09' W 015°25'0 0.0
2016-Apr-10 15:28N 28°09' W 015°25'0 0.0
2016-Apr-10 14:28N 28°09' W 015°25'0 0.0
2016-Apr-10 13:28N 28°09' W 015°25'0 0.0
2016-Apr-10 12:28N 28°09' W 015°25'0 0.0
2016-Apr-10 11:31N 28°09' W 015°25'0 0.0
2016-Apr-10 10:31N 28°09' W 015°25'0 0.0
2016-Apr-10 09:31N 28°09' W 015°25'0 0.0
2016-Apr-10 08:31N 28°09' W 015°25'0 0.0
2016-Apr-10 07:31N 28°09' W 015°25'0 0.0
2016-Apr-10 06:31N 28°09' W 015°25'0 0.0
2016-Apr-10 05:31N 28°09' W 015°25'0 0.0
2016-Apr-10 04:31N 28°09' W 015°25'0 0.0
2016-Apr-10 03:22N 28°09' W 015°25'0 0.0
2016-Apr-10 02:33N 28°09' W 015°25'0 0.0
2016-Apr-10 01:33N 28°09' W 015°25'0 0.0
2016-Apr-10 00:33N 28°09' W 015°25'0 0.0
2016-Apr-09 23:33N 28°09' W 015°25'0 0.0
2016-Apr-09 22:33N 28°09' W 015°25'0 0.0
2016-Apr-09 21:33N 28°09' W 015°25'0 0.0
2016-Apr-09 20:24N 28°09' W 015°25'0 0.0
2016-Apr-09 19:24N 28°09' W 015°25'0 0.0
2016-Apr-09 18:27N 28°09' W 015°25'0 0.0
2016-Apr-09 17:27N 28°09' W 015°25'0 0.0
2016-Apr-09 16:27N 28°09' W 015°25'0 0.0
2016-Apr-09 15:30N 28°09' W 015°25'0 0.0
2016-Apr-09 14:30N 28°09' W 015°25'0 0.0
2016-Apr-09 13:33N 28°09' W 015°25'0 0.0
2016-Apr-09 12:30N 28°09' W 015°25'0 0.0
2016-Apr-09 11:33N 28°09' W 015°25'0 0.0
2016-Apr-09 10:33N 28°09' W 015°25'0 0.0
2016-Apr-09 09:33N 28°09' W 015°25'2 2.4
2016-Apr-09 08:33N 28°07' W 015°23'4 3.5
2016-Apr-09 07:34N 28°08' W 015°20'9 8.9
2016-Apr-09 06:33N 28°17' W 015°19'1110.8
2016-Apr-09 05:33N 28°27' W 015°19'10 9.5
2016-Apr-09 04:33N 28°34' W 015°27'1211.6
2016-Apr-09 03:33N 28°37' W 015°40'1212.0
2016-Apr-09 02:33N 28°43' W 015°51'  

Dump ship's entire track history